createdAt,value
2022-11-23T00:01:14.323Z,2.40
2022-11-23T00:03:42.617Z,2.20
2022-11-23T00:06:12.272Z,2.20
2022-11-23T00:08:40.576Z,2.20
2022-11-23T00:11:08.658Z,2.40
2022-11-23T00:13:39.390Z,2.40
2022-11-23T00:16:08.291Z,2.20
2022-11-23T00:18:36.592Z,2.40
2022-11-23T00:21:07.901Z,2.30
2022-11-23T00:23:37.840Z,2.10
2022-11-23T00:26:06.928Z,2.10
2022-11-23T00:28:37.368Z,2.10
2022-11-23T00:31:05.861Z,2.10
2022-11-23T00:33:34.036Z,2.10
2022-11-23T00:36:02.696Z,2.20
2022-11-23T00:38:32.648Z,2.10
2022-11-23T00:41:03.827Z,2.00
2022-11-23T00:43:32.516Z,2.10
2022-11-23T00:46:05.453Z,2.30
2022-11-23T00:48:33.567Z,2.20
2022-11-23T00:51:02.482Z,2.20
2022-11-23T00:53:30.634Z,2.10
2022-11-23T00:55:59.103Z,2.20
2022-11-23T00:58:28.761Z,2.40
2022-11-23T01:01:05.481Z,2.30
2022-11-23T01:03:37.061Z,2.30
2022-11-23T01:06:07.021Z,2.30
2022-11-23T01:08:35.245Z,2.30
2022-11-23T01:11:05.784Z,2.30
2022-11-23T01:13:38.493Z,2.50
2022-11-23T01:16:08.595Z,2.30
2022-11-23T01:18:37.571Z,2.30
2022-11-23T01:21:05.739Z,2.20
2022-11-23T01:23:33.761Z,2.10
2022-11-23T01:26:06.923Z,2.20
2022-11-23T01:28:35.273Z,2.30
2022-11-23T01:31:10.614Z,2.40
2022-11-23T01:33:38.726Z,2.20
2022-11-23T01:36:11.463Z,2.10
2022-11-23T01:38:39.909Z,1.90
2022-11-23T01:41:08.561Z,2.10
2022-11-23T01:43:36.765Z,2.10
2022-11-23T01:46:06.011Z,2.10
2022-11-23T01:48:39.100Z,2.10
2022-11-23T01:51:11.377Z,2.10
2022-11-23T01:53:40.829Z,2.10
2022-11-23T01:56:11.627Z,2.20
2022-11-23T01:58:45.167Z,2.30
2022-11-23T02:01:14.047Z,2.20
2022-11-23T02:03:44.726Z,2.20
2022-11-23T02:06:16.202Z,2.00
2022-11-23T02:08:44.888Z,2.00
2022-11-23T02:11:14.558Z,2.00
2022-11-23T02:13:43.889Z,2.20
2022-11-23T02:16:12.064Z,2.00
2022-11-23T02:18:44.282Z,2.00
2022-11-23T02:21:13.002Z,2.00
2022-11-23T02:23:53.845Z,2.10
2022-11-23T02:26:26.277Z,2.00
2022-11-23T02:29:00.162Z,1.90
2022-11-23T02:31:30.456Z,1.80
2022-11-23T02:33:58.631Z,1.90
2022-11-23T02:36:42.392Z,2.00
2022-11-23T02:39:13.678Z,2.10
2022-11-23T02:41:45.352Z,1.90
2022-11-23T02:44:26.951Z,2.10
2022-11-23T02:46:55.629Z,2.10
2022-11-23T02:49:23.698Z,2.10
2022-11-23T02:51:52.648Z,2.00
2022-11-23T02:54:20.919Z,1.80
2022-11-23T02:56:50.649Z,2.00
2022-11-23T02:59:19.961Z,2.10
2022-11-23T03:01:48.644Z,2.10
2022-11-23T03:04:16.794Z,2.10
2022-11-23T03:06:46.141Z,2.20
2022-11-23T03:09:14.918Z,2.10
2022-11-23T03:11:43.417Z,2.20
2022-11-23T03:14:12.807Z,2.00
2022-11-23T03:16:51.468Z,2.00
2022-11-23T03:19:21.227Z,2.10
2022-11-23T03:21:51.904Z,2.00
2022-11-23T03:24:20.023Z,2.10
2022-11-23T03:26:49.129Z,1.90
2022-11-23T03:29:26.381Z,1.90
2022-11-23T03:31:56.322Z,2.10
2022-11-23T03:34:25.617Z,1.90
2022-11-23T03:36:53.759Z,2.10
2022-11-23T03:39:22.058Z,2.00
2022-11-23T03:42:28.710Z,2.00
2022-11-23T03:44:58.899Z,1.80
2022-11-23T03:47:26.948Z,1.90
2022-11-23T03:49:55.183Z,2.10
2022-11-23T03:52:23.191Z,2.00
2022-11-23T03:54:51.344Z,2.10
2022-11-23T03:57:19.387Z,1.90
2022-11-23T03:59:50.013Z,1.90
2022-11-23T04:02:20.052Z,1.90
2022-11-23T04:04:58.453Z,1.80
2022-11-23T04:07:48.180Z,1.90
2022-11-23T04:10:16.956Z,1.80
2022-11-23T04:13:00.494Z,2.00
2022-11-23T04:15:29.198Z,2.00
2022-11-23T04:17:58.801Z,1.90
2022-11-23T04:20:27.775Z,1.90
2022-11-23T04:22:56.108Z,1.80
2022-11-23T04:25:25.985Z,1.70
2022-11-23T04:27:54.035Z,1.90
2022-11-23T04:30:22.259Z,2.00
2022-11-23T04:32:50.384Z,1.80
2022-11-23T04:35:20.020Z,1.80
2022-11-23T04:37:50.819Z,1.80
2022-11-23T04:40:19.824Z,1.70
2022-11-23T04:43:00.469Z,1.70
2022-11-23T04:45:31.136Z,1.70
2022-11-23T04:48:03.712Z,1.80
2022-11-23T04:50:35.623Z,2.10
2022-11-23T04:53:05.562Z,1.90
2022-11-23T04:55:42.231Z,1.80
2022-11-23T04:58:11.950Z,1.80
2022-11-23T05:00:40.737Z,1.70
2022-11-23T05:03:10.099Z,1.70
2022-11-23T05:05:42.876Z,1.80
2022-11-23T05:08:11.363Z,1.80
2022-11-23T05:10:59.711Z,2.00
2022-11-23T05:13:28.894Z,1.80
2022-11-23T05:15:58.441Z,1.70
2022-11-23T05:18:29.552Z,1.60
2022-11-23T05:20:58.949Z,1.50
2022-11-23T05:23:27.980Z,1.60
2022-11-23T05:25:56.549Z,1.90
2022-11-23T05:28:41.585Z,1.60
2022-11-23T05:31:14.382Z,1.60
2022-11-23T05:33:44.517Z,1.60
2022-11-23T05:36:14.267Z,1.80
2022-11-23T05:38:43.726Z,1.60
2022-11-23T05:41:25.020Z,1.60
2022-11-23T05:43:57.204Z,1.50
2022-11-23T05:46:29.144Z,1.60
2022-11-23T05:48:57.511Z,1.50
2022-11-23T05:51:27.703Z,1.60
2022-11-23T05:53:57.179Z,1.70
2022-11-23T05:56:40.557Z,1.70
2022-11-23T05:59:18.137Z,1.60
2022-11-23T06:01:52.364Z,1.60
2022-11-23T06:04:28.733Z,1.70
2022-11-23T06:07:01.282Z,1.60
2022-11-23T06:09:38.044Z,1.50
2022-11-23T06:12:09.907Z,1.40
2022-11-23T06:14:38.644Z,1.50
2022-11-23T06:17:07.069Z,1.40
2022-11-23T06:19:39.725Z,1.50
2022-11-23T06:22:09.709Z,1.50
2022-11-23T06:24:44.924Z,1.60
2022-11-23T06:27:31.882Z,1.70
2022-11-23T06:30:02.701Z,1.40
2022-11-23T06:32:32.757Z,1.50
2022-11-23T06:35:01.738Z,1.50
2022-11-23T06:37:35.034Z,1.50
2022-11-23T06:40:04.587Z,1.80
2022-11-23T06:42:40.378Z,1.60
2022-11-23T06:45:22.615Z,1.50
2022-11-23T06:47:55.877Z,1.40
2022-11-23T06:50:25.507Z,1.50
2022-11-23T06:52:58.863Z,1.60
2022-11-23T06:55:43.678Z,1.60
2022-11-23T06:58:13.741Z,1.70
2022-11-23T07:00:41.879Z,1.90
2022-11-23T07:03:19.697Z,1.60
2022-11-23T07:05:49.858Z,1.40
2022-11-23T07:08:21.926Z,1.50
2022-11-23T07:10:50.220Z,1.30
2022-11-23T07:13:19.045Z,1.30
2022-11-23T07:15:47.733Z,1.20
2022-11-23T07:18:15.865Z,1.40
2022-11-23T07:20:51.885Z,1.40
2022-11-23T07:23:21.792Z,1.50
2022-11-23T07:25:49.802Z,1.60
2022-11-23T07:28:18.258Z,1.50
2022-11-23T07:30:46.421Z,1.30
2022-11-23T07:33:16.146Z,1.30
2022-11-23T07:35:44.209Z,1.40
2022-11-23T07:38:12.506Z,1.40
2022-11-23T07:40:41.961Z,1.40
2022-11-23T07:43:19.949Z,1.40
2022-11-23T07:45:50.869Z,1.50
2022-11-23T07:48:18.956Z,1.40
2022-11-23T07:50:47.010Z,1.20
2022-11-23T07:53:15.119Z,1.30
2022-11-23T07:55:44.509Z,1.10
2022-11-23T07:58:13.205Z,1.20
2022-11-23T08:00:41.299Z,1.40
2022-11-23T08:03:30.276Z,1.10
2022-11-23T08:05:58.786Z,1.10
2022-11-23T08:08:26.924Z,1.20
2022-11-23T08:10:56.333Z,1.20
2022-11-23T08:13:24.528Z,1.10
2022-11-23T08:15:55.350Z,1.30
2022-11-23T08:18:23.837Z,1.10
2022-11-23T08:20:52.046Z,1.30
2022-11-23T08:23:20.334Z,1.40
2022-11-23T08:25:48.484Z,1.50
2022-11-23T08:28:18.197Z,1.30
2022-11-23T08:30:46.543Z,1.30
2022-11-23T08:33:15.163Z,1.60
2022-11-23T08:35:44.369Z,1.60
2022-11-23T08:38:12.781Z,1.50
2022-11-23T08:40:40.893Z,1.70
2022-11-23T08:43:09.089Z,1.60
2022-11-23T08:45:38.505Z,1.50
2022-11-23T08:48:07.379Z,1.40
2022-11-23T08:50:35.610Z,1.60
2022-11-23T08:53:03.750Z,1.60
2022-11-23T08:55:31.768Z,1.60
2022-11-23T08:58:00.595Z,1.60
2022-11-23T09:00:29.774Z,1.60
2022-11-23T09:03:00.129Z,1.60
2022-11-23T09:05:28.688Z,1.60
2022-11-23T09:07:56.867Z,1.40
2022-11-23T09:10:25.047Z,1.60
2022-11-23T09:12:53.307Z,1.30
2022-11-23T09:15:22.136Z,1.20
2022-11-23T09:17:50.231Z,1.40
2022-11-23T09:20:20.289Z,1.70
2022-11-23T09:22:52.248Z,1.90
2022-11-23T09:25:20.734Z,1.70
2022-11-23T09:27:50.625Z,1.80
2022-11-23T09:30:19.007Z,1.80
2022-11-23T09:32:47.000Z,2.00
2022-11-23T09:35:15.258Z,1.90
2022-11-23T09:37:44.695Z,1.70
2022-11-23T09:40:17.262Z,1.90
2022-11-23T09:43:03.846Z,2.10
2022-11-23T09:45:41.544Z,2.10
2022-11-23T09:48:29.531Z,1.90
2022-11-23T09:51:02.386Z,1.90
2022-11-23T09:53:36.553Z,2.10
2022-11-23T09:56:04.661Z,2.00
2022-11-23T09:58:40.023Z,1.90
2022-11-23T10:01:13.174Z,1.70
2022-11-23T10:03:48.464Z,2.30
2022-11-23T10:06:22.693Z,2.20
2022-11-23T10:09:19.603Z,1.70
2022-11-23T10:12:08.247Z,1.80
2022-11-23T10:14:52.840Z,2.10
2022-11-23T10:17:30.527Z,2.50
2022-11-23T10:20:13.899Z,2.30
2022-11-23T10:22:49.140Z,2.30
2022-11-23T10:25:20.943Z,2.50
2022-11-23T10:27:52.219Z,2.90
2022-11-23T10:30:21.465Z,2.60
2022-11-23T10:32:54.597Z,2.30
2022-11-23T10:35:29.283Z,2.10
2022-11-23T10:38:18.796Z,2.00
2022-11-23T10:40:59.701Z,1.90
2022-11-23T10:43:32.618Z,2.30
2022-11-23T10:46:29.487Z,2.20
2022-11-23T10:49:09.109Z,1.60
2022-11-23T10:51:38.742Z,1.80
2022-11-23T10:54:18.905Z,2.00
2022-11-23T10:56:50.397Z,1.90
2022-11-23T10:59:30.575Z,2.00
2022-11-23T11:02:20.299Z,2.60
2022-11-23T11:04:53.254Z,2.20
2022-11-23T11:07:28.493Z,2.10
2022-11-23T11:09:59.190Z,2.20
2022-11-23T11:12:30.288Z,2.00
2022-11-23T11:15:11.421Z,2.00
2022-11-23T11:17:42.104Z,1.90
2022-11-23T11:20:32.310Z,2.00
2022-11-23T11:23:03.029Z,2.10
2022-11-23T11:25:33.948Z,1.70
2022-11-23T11:28:05.687Z,1.70
2022-11-23T11:30:42.838Z,1.80
2022-11-23T11:33:16.548Z,2.10
2022-11-23T11:35:49.374Z,2.20
2022-11-23T11:38:22.026Z,2.30
2022-11-23T11:40:52.177Z,2.50
2022-11-23T11:43:34.723Z,2.10
2022-11-23T11:49:07.094Z,2.60
2022-11-23T11:51:39.207Z,2.70
2022-11-23T11:54:16.811Z,2.60
2022-11-23T11:56:47.504Z,2.60
2022-11-23T11:59:25.950Z,2.10
2022-11-23T12:01:58.547Z,2.20
2022-11-23T12:04:32.830Z,2.30
2022-11-23T12:07:06.295Z,2.20
2022-11-23T12:09:40.231Z,2.30
2022-11-23T12:12:14.393Z,2.10
2022-11-23T12:14:45.061Z,2.40
2022-11-23T12:17:34.450Z,2.60
2022-11-23T12:20:08.692Z,2.00
2022-11-23T12:22:47.469Z,1.80
2022-11-23T12:25:26.118Z,1.80
2022-11-23T12:28:05.015Z,2.00
2022-11-23T12:30:42.714Z,1.80
2022-11-23T12:33:44.784Z,1.60
2022-11-23T12:36:32.319Z,1.50
2022-11-23T12:39:10.084Z,1.70
2022-11-23T12:41:46.194Z,1.90
2022-11-23T12:44:39.839Z,2.00
2022-11-23T12:47:19.968Z,1.90
2022-11-23T12:49:52.714Z,1.90
2022-11-23T12:52:34.084Z,2.00
2022-11-23T12:55:19.432Z,2.00
2022-11-23T12:57:53.546Z,1.90
2022-11-23T13:00:23.790Z,1.90
2022-11-23T13:03:21.647Z,1.90
2022-11-23T13:06:08.814Z,1.60
2022-11-23T13:09:06.620Z,1.70
2022-11-23T13:11:48.752Z,1.80
2022-11-23T13:14:26.183Z,1.80
2022-11-23T13:17:10.708Z,1.70
2022-11-23T13:20:28.289Z,1.80
2022-11-23T13:22:59.859Z,2.00
2022-11-23T13:25:29.540Z,1.70
2022-11-23T13:28:02.852Z,1.50
2022-11-23T13:33:37.803Z,1.70
2022-11-23T13:36:11.475Z,1.90
2022-11-23T13:38:45.357Z,1.60
2022-11-23T13:41:58.399Z,1.50
2022-11-23T13:44:30.051Z,1.50
2022-11-23T13:47:06.906Z,1.80
2022-11-23T13:49:41.831Z,1.60
2022-11-23T13:52:30.365Z,1.60
2022-11-23T13:55:08.952Z,1.70
2022-11-23T13:57:39.120Z,1.80
2022-11-23T14:00:47.891Z,1.70
2022-11-23T14:03:51.547Z,1.70
2022-11-23T14:06:29.819Z,1.70
2022-11-23T14:09:04.802Z,1.70
2022-11-23T14:11:41.378Z,1.30
2022-11-23T14:14:19.328Z,1.30
2022-11-23T14:17:23.938Z,1.30
2022-11-23T14:20:18.616Z,1.30
2022-11-23T14:22:58.446Z,1.20
2022-11-23T14:25:45.601Z,1.30
2022-11-23T14:28:30.206Z,1.40
2022-11-23T14:31:10.534Z,0.40
2022-11-23T14:33:45.637Z,1.30
2022-11-23T14:36:23.699Z,1.10
2022-11-23T14:39:05.695Z,1.20
2022-11-23T14:41:36.383Z,0.90
2022-11-23T14:44:07.399Z,1.10
2022-11-23T14:46:35.702Z,1.00
2022-11-23T14:49:13.270Z,1.10
2022-11-23T14:51:44.920Z,1.00
2022-11-23T14:54:15.215Z,0.90
2022-11-23T14:56:46.246Z,0.70
2022-11-23T14:59:23.281Z,0.70
2022-11-23T15:01:53.435Z,0.80
2022-11-23T15:04:27.164Z,0.80
2022-11-23T15:07:00.313Z,0.90
2022-11-23T15:09:42.618Z,1.00
2022-11-23T15:12:22.318Z,1.00
2022-11-23T15:14:52.268Z,1.10
2022-11-23T15:17:22.051Z,1.00
2022-11-23T15:19:57.988Z,0.90
2022-11-23T15:22:27.138Z,0.90
2022-11-23T15:24:55.652Z,1.00
2022-11-23T15:27:28.755Z,0.80
2022-11-23T15:30:00.318Z,0.90
2022-11-23T15:32:32.733Z,1.00
2022-11-23T15:35:06.952Z,0.90
2022-11-23T15:37:42.301Z,0.70
2022-11-23T15:40:14.452Z,0.90
2022-11-23T15:42:43.939Z,1.20
2022-11-23T15:45:38.705Z,1.00
2022-11-23T15:48:11.585Z,1.10
2022-11-23T15:50:48.484Z,0.80
2022-11-23T15:53:16.913Z,0.80
2022-11-23T15:55:45.458Z,0.80
2022-11-23T15:58:18.121Z,0.80
2022-11-23T16:00:52.757Z,0.70
2022-11-23T16:03:33.688Z,0.70
2022-11-23T16:06:25.855Z,0.70
2022-11-23T16:08:54.052Z,0.70
2022-11-23T16:11:31.079Z,0.70
2022-11-23T16:14:17.598Z,0.90
2022-11-23T16:16:48.486Z,1.90
2022-11-23T16:19:26.100Z,0.90
2022-11-23T16:22:02.248Z,0.80
2022-11-23T16:24:32.995Z,0.80
2022-11-23T16:27:01.807Z,0.70
2022-11-23T16:29:36.875Z,0.80
2022-11-23T16:32:07.929Z,0.80
2022-11-23T16:34:36.195Z,1.00
2022-11-23T16:37:05.662Z,1.00
2022-11-23T16:39:33.787Z,0.90
2022-11-23T16:42:01.871Z,0.90
2022-11-23T16:44:35.102Z,1.00
2022-11-23T16:47:21.385Z,0.90
2022-11-23T16:49:49.826Z,1.00
2022-11-23T16:52:18.115Z,1.00
2022-11-23T16:54:46.904Z,1.00
2022-11-23T16:57:20.903Z,1.00
2022-11-23T16:59:49.249Z,1.10
2022-11-23T17:02:19.169Z,0.80
2022-11-23T17:04:47.749Z,1.00
2022-11-23T17:07:16.903Z,1.10
2022-11-23T17:09:45.202Z,0.80
2022-11-23T17:12:17.241Z,0.70
2022-11-23T17:14:48.413Z,0.60
2022-11-23T17:17:22.180Z,0.60
2022-11-23T17:19:51.218Z,0.50
2022-11-23T17:22:21.254Z,0.50
2022-11-23T17:24:51.753Z,0.60
2022-11-23T17:27:22.889Z,0.70
2022-11-23T17:29:57.056Z,0.70
2022-11-23T17:32:26.872Z,0.70
2022-11-23T17:34:55.140Z,0.60
2022-11-23T17:37:25.152Z,0.50
2022-11-23T17:39:53.478Z,0.50
2022-11-23T17:42:22.083Z,0.50
2022-11-23T17:44:50.222Z,0.40
2022-11-23T17:47:23.904Z,0.50
2022-11-23T17:49:53.543Z,0.50
2022-11-23T17:52:21.921Z,0.70
2022-11-23T17:54:50.147Z,0.60
2022-11-23T17:57:21.036Z,0.50
2022-11-23T17:59:49.104Z,0.70
2022-11-23T18:02:19.291Z,0.40
2022-11-23T18:04:47.530Z,0.20
2022-11-23T18:07:18.738Z,0.20
2022-11-23T18:09:46.887Z,0.30
2022-11-23T18:12:15.055Z,0.50
2022-11-23T18:14:43.889Z,0.70
2022-11-23T18:17:12.033Z,0.60
2022-11-23T18:19:40.257Z,0.50
2022-11-23T18:22:08.416Z,0.60
2022-11-23T18:24:37.977Z,0.70
2022-11-23T18:27:06.155Z,0.40
2022-11-23T18:29:36.470Z,0.60
2022-11-23T18:32:06.761Z,0.60
2022-11-23T18:34:35.105Z,0.50
2022-11-23T18:37:03.188Z,0.50
2022-11-23T18:39:31.550Z,0.50
2022-11-23T18:42:05.457Z,0.50
2022-11-23T18:44:34.493Z,0.40
2022-11-23T18:47:02.569Z,0.30
2022-11-23T18:49:30.953Z,0.50
2022-11-23T18:52:01.531Z,0.10
2022-11-23T18:54:29.698Z,0.40
2022-11-23T18:56:57.706Z,0.10
2022-11-23T18:59:57.582Z,0.30
2022-11-23T19:02:15.666Z,0.20
2022-11-23T19:04:44.032Z,0.30
2022-11-23T19:07:12.234Z,0.00
2022-11-23T19:09:40.267Z,0.00
2022-11-23T19:12:09.849Z,0.20
2022-11-23T19:14:39.383Z,0.30
2022-11-23T19:17:10.500Z,0.40
2022-11-23T19:19:39.248Z,0.20
2022-11-23T19:22:07.559Z,0.90
2022-11-23T19:24:40.297Z,0.00
2022-11-23T19:27:10.258Z,-0.10
2022-11-23T19:29:39.578Z,-0.20
2022-11-23T19:32:07.894Z,-0.30
2022-11-23T19:34:36.064Z,-0.30
2022-11-23T19:37:05.606Z,-0.20
2022-11-23T19:39:37.185Z,-0.30
2022-11-23T19:42:05.389Z,-0.20
2022-11-23T19:44:33.410Z,-0.30
2022-11-23T19:47:05.222Z,-0.30
2022-11-23T19:49:35.747Z,-0.40
2022-11-23T19:52:05.330Z,-0.40
2022-11-23T19:54:33.638Z,-0.30
2022-11-23T19:57:01.897Z,-0.30
2022-11-23T19:59:30.158Z,-0.20
2022-11-23T20:01:58.286Z,-0.20
2022-11-23T20:04:27.834Z,0.10
2022-11-23T20:06:55.964Z,0.40
2022-11-23T20:09:24.609Z,0.00
2022-11-23T20:11:52.628Z,-0.10
2022-11-23T20:14:21.269Z,-0.10
2022-11-23T20:16:49.399Z,0.10
2022-11-23T20:19:17.826Z,0.10
2022-11-23T20:21:47.560Z,0.10
2022-11-23T20:24:15.935Z,0.00
2022-11-23T20:26:44.528Z,0.00
2022-11-23T20:29:13.813Z,-0.20
2022-11-23T20:31:43.422Z,-0.10
2022-11-23T20:34:16.697Z,0.20
2022-11-23T20:36:49.646Z,0.00
2022-11-23T20:39:17.787Z,0.00
2022-11-23T20:41:45.988Z,-0.10
2022-11-23T20:44:15.437Z,0.20
2022-11-23T20:49:32.951Z,-0.10
2022-11-23T20:52:03.035Z,0.10
2022-11-23T20:54:31.843Z,0.10
2022-11-23T20:57:00.795Z,-0.20
2022-11-23T20:59:29.895Z,-0.20
2022-11-23T21:01:58.888Z,-0.10
2022-11-23T21:04:27.385Z,0.00
2022-11-23T21:06:55.690Z,-0.10
2022-11-23T21:09:25.302Z,0.00
2022-11-23T21:12:10.882Z,-0.20
2022-11-23T21:14:39.453Z,-0.30
2022-11-23T21:17:07.680Z,-0.30
2022-11-23T21:19:37.722Z,-0.30
2022-11-23T21:22:07.213Z,-0.30
2022-11-23T21:24:37.208Z,-0.40
2022-11-23T21:27:07.316Z,-0.40
2022-11-23T21:29:35.987Z,1.00
2022-11-23T21:32:07.101Z,-0.20
2022-11-23T21:34:35.628Z,-0.10
2022-11-23T21:37:03.790Z,0.00
2022-11-23T21:39:33.130Z,-0.40
2022-11-23T21:42:02.859Z,-0.30
2022-11-23T21:44:31.204Z,-0.40
2022-11-23T21:46:59.473Z,-0.40
2022-11-23T21:49:28.489Z,-0.30
2022-11-23T21:51:56.641Z,-0.40
2022-11-23T21:54:24.895Z,-0.50
2022-11-23T21:56:52.956Z,-0.50
2022-11-23T21:59:23.332Z,-0.30
2022-11-23T22:01:51.474Z,-0.30
2022-11-23T22:04:19.884Z,-0.50
2022-11-23T22:06:48.047Z,-0.30
2022-11-23T22:09:17.141Z,-0.10
2022-11-23T22:11:45.863Z,-0.10
2022-11-23T22:14:15.633Z,-0.40
2022-11-23T22:16:46.216Z,-0.20
2022-11-23T22:19:16.566Z,-0.20
2022-11-23T22:21:46.119Z,0.00
2022-11-23T22:24:15.800Z,0.00
2022-11-23T22:26:44.768Z,0.00
2022-11-23T22:29:13.249Z,-0.30
2022-11-23T22:31:41.798Z,-0.20
2022-11-23T22:34:13.175Z,-0.10
2022-11-23T22:36:41.838Z,-0.20
2022-11-23T22:39:10.789Z,-0.20
2022-11-23T22:41:39.403Z,-0.40
2022-11-23T22:44:08.991Z,-0.40
2022-11-23T22:46:38.175Z,-0.30
2022-11-23T22:49:06.897Z,-0.20
2022-11-23T22:51:36.368Z,-0.30
2022-11-23T22:54:04.618Z,-0.20
2022-11-23T22:56:32.999Z,-0.20
2022-11-23T22:59:01.146Z,-0.20
2022-11-23T23:01:31.264Z,-0.30
2022-11-23T23:04:01.505Z,-0.20
2022-11-23T23:06:33.794Z,-0.40
2022-11-23T23:09:05.754Z,-0.30
2022-11-23T23:11:35.475Z,-0.40
2022-11-23T23:14:03.839Z,-0.30
2022-11-23T23:16:32.063Z,-0.50
2022-11-23T23:19:00.719Z,-0.30
2022-11-23T23:21:30.632Z,-0.40
2022-11-23T23:24:01.174Z,-0.20
2022-11-23T23:26:37.096Z,-0.40
2022-11-23T23:29:05.331Z,-0.40
2022-11-23T23:31:37.307Z,-0.20
2022-11-23T23:34:05.624Z,-0.30
2022-11-23T23:36:33.743Z,-0.20
2022-11-23T23:39:04.311Z,-0.40
2022-11-23T23:41:32.532Z,-0.40
2022-11-23T23:44:02.105Z,-0.40
2022-11-23T23:46:30.245Z,-0.30
2022-11-23T23:49:00.735Z,-0.60
2022-11-23T23:51:29.065Z,-0.30
2022-11-23T23:53:58.821Z,-0.10
2022-11-23T23:56:28.812Z,-0.30
2022-11-23T23:58:58.000Z,-0.30
